Terminal Aerodrome Forecast
Issued by NWS Sterling, VA

Current Version | Previous Version | Text Only | Print | Product List | Glossary Off
Versions: 1 2 3 4 5 6 7 8 9 10 11 12 13 14 15 16 17 18 19 20 21 22 23 24 25 26 27 28

000
FTUS41 KLWX 260819 AAA
TAFIAD
TAF AMD
KIAD 260819Z 2608/2712 20004KT P6SM OVC025 WS020/21035KT
     FM261000 20006KT 5SM BR BKN080 WS020/22035KT
     FM261300 20006KT 5SM BR BKN025
     FM261600 21016G25KT P6SM SCT060
     FM262300 23009KT P6SM SHRA BKN080
     FM270200 30013G21KT P6SM -SHRA OVC045
     FM270700 34012G20KT P6SM -SHRA OVC015=

USA.gov is the U.S. government's official web portal to all federal, state and local government web resources and services.